Time;durP1;ratioP1;P1;durP2;ratioP2;P2;SDS_P1;SDS_P2;PMS_P1;PMS_P2;Temp;Humidity;BMP_temperature;BMP_pressure;BME280_temperature;BME280_humidity;BME280_pressure;Samples;Min_cycle;Max_cycle;Signal;HPM_P1;HPM_P2
2021/06/02 00:02:06;;;;;;;4.57;2.78;;;;;;;;;;5035798;28;20116;-59
2021/06/02 00:04:34;;;;;;;4.30;2.45;;;;;;;;;;5035380;28;20029;-59
2021/06/02 00:07:02;;;;;;;3.38;2.50;;;;;;;;;;5053403;28;20037;-59
2021/06/02 00:09:28;;;;;;;3.03;2.20;;;;;;;;;;5053692;28;20021;-59
2021/06/02 00:11:56;;;;;;;3.33;2.28;;;;;;;;;;5053531;28;20025;-59
2021/06/02 00:14:23;;;;;;;2.90;2.35;;;;;;;;;;5053076;28;20029;-59
2021/06/02 00:16:50;;;;;;;3.42;2.50;;;;;;;;;;5053797;28;20029;-59
2021/06/02 00:19:16;;;;;;;4.10;2.30;;;;;;;;;;5057192;28;20028;-59
2021/06/02 00:21:42;;;;;;;3.20;2.33;;;;;;;;;;5057118;28;20025;-59
2021/06/02 00:24:09;;;;;;;2.92;2.22;;;;;;;;;;5056751;28;20463;-59
2021/06/02 00:26:36;;;;;;;2.90;2.20;;;;;;;;;;5056763;28;20467;-59
2021/06/02 00:29:07;;;;;;;6.15;2.40;;;;;;;;;;5056654;28;20122;-59
2021/06/02 00:31:33;;;;;;;5.55;2.15;;;;;;;;;;5039045;28;20033;-59
2021/06/02 00:34:03;;;;;;;3.33;2.53;;;;;;;;;;5039479;28;20079;-59
2021/06/02 00:36:32;;;;;;;3.28;2.35;;;;;;;;;;5056573;28;20111;-59
2021/06/02 00:38:58;;;;;;;2.75;2.08;;;;;;;;;;5056357;28;20112;-59
2021/06/02 00:41:29;;;;;;;3.00;2.38;;;;;;;;;;5057195;28;20087;-59
2021/06/02 00:43:56;;;;;;;4.47;2.28;;;;;;;;;;5056110;28;20386;-59
2021/06/02 00:46:22;;;;;;;3.20;1.95;;;;;;;;;;5056415;28;20028;-59
2021/06/02 00:48:48;;;;;;;3.53;2.60;;;;;;;;;;5056276;28;20451;-60
2021/06/02 00:51:14;;;;;;;3.67;2.63;;;;;;;;;;5056364;28;20090;-60
2021/06/02 00:53:40;;;;;;;3.35;2.33;;;;;;;;;;5055946;28;20408;-60
2021/06/02 00:56:07;;;;;;;3.38;2.67;;;;;;;;;;5056160;28;20026;-59
2021/06/02 00:58:47;;;;;;;3.70;2.33;;;;;;;;;;5055793;28;20029;-59
2021/06/02 01:01:14;;;;;;;2.40;2.00;;;;;;;;;;5057214;28;20361;-60
2021/06/02 01:03:40;;;;;;;3.53;2.10;;;;;;;;;;5038454;28;20374;-59
2021/06/02 01:06:06;;;;;;;3.78;2.05;;;;;;;;;;5038117;28;20053;-59
2021/06/02 01:08:33;;;;;;;3.88;2.20;;;;;;;;;;5055955;28;20032;-59
2021/06/02 01:10:59;;;;;;;5.07;2.33;;;;;;;;;;5056284;28;20025;-59
2021/06/02 01:13:25;;;;;;;3.63;2.13;;;;;;;;;;5055875;28;20103;-59
2021/06/02 01:15:51;;;;;;;5.07;2.42;;;;;;;;;;5056103;28;20024;-59
2021/06/02 01:18:18;;;;;;;3.97;2.05;;;;;;;;;;5055971;28;20027;-59
2021/06/02 01:20:44;;;;;;;4.00;2.38;;;;;;;;;;5056306;28;20308;-59
2021/06/02 01:23:11;;;;;;;4.28;2.20;;;;;;;;;;5056081;28;20040;-60
2021/06/02 01:25:38;;;;;;;4.97;1.85;;;;;;;;;;5038047;28;20025;-59
2021/06/02 01:28:04;;;;;;;3.00;1.90;;;;;;;;;;5055011;28;20025;-59
2021/06/02 01:30:31;;;;;;;3.50;2.33;;;;;;;;;;5056004;28;20036;-59
2021/06/02 01:51:35;;;;;;;6.78;2.75;;;;;;;;;;5055120;28;20559;-59
2021/06/02 01:54:12;;;;;;;4.63;2.63;;;;;;;;;;5055187;28;20021;-60
2021/06/02 01:56:47;;;;;;;7.63;2.60;;;;;;;;;;5055646;28;20609;-60
2021/06/02 01:59:28;;;;;;;3.00;1.95;;;;;;;;;;5054697;28;20420;-60
2021/06/02 02:02:05;;;;;;;6.35;2.38;;;;;;;;;;5036990;28;20029;-60
2021/06/02 02:04:40;;;;;;;3.08;2.28;;;;;;;;;;5037108;28;20083;-60
2021/06/02 02:07:09;;;;;;;4.38;2.40;;;;;;;;;;5054788;28;20063;-60
2021/06/02 02:09:50;;;;;;;3.05;2.15;;;;;;;;;;5054759;28;20112;-59
2021/06/02 02:12:33;;;;;;;4.72;2.53;;;;;;;;;;5037753;28;20079;-60
2021/06/02 02:15:21;;;;;;;3.65;2.30;;;;;;;;;;5055271;28;20098;-60
2021/06/02 02:18:10;;;;;;;4.07;2.58;;;;;;;;;;5054966;28;20021;-60
2021/06/02 02:20:45;;;;;;;3.55;2.25;;;;;;;;;;5054684;28;20033;-60
2021/06/02 02:23:11;;;;;;;4.20;2.72;;;;;;;;;;5054825;28;20029;-60
2021/06/02 02:25:40;;;;;;;3.50;2.28;;;;;;;;;;5036646;28;20090;-59
2021/06/02 02:28:24;;;;;;;5.65;2.33;;;;;;;;;;5054404;28;20017;-59
2021/06/02 02:30:56;;;;;;;4.22;2.55;;;;;;;;;;5054778;28;20031;-59
2021/06/02 02:33:26;;;;;;;2.70;2.08;;;;;;;;;;5054289;28;20021;-59
2021/06/02 02:36:02;;;;;;;4.10;2.50;;;;;;;;;;5054881;28;20038;-59
2021/06/02 02:38:47;;;;;;;4.15;2.40;;;;;;;;;;5054226;28;20021;-59
2021/06/02 02:41:19;;;;;;;3.33;2.67;;;;;;;;;;5054389;28;20064;-59
2021/06/02 02:43:59;;;;;;;2.95;2.22;;;;;;;;;;5054192;28;20017;-59
2021/06/02 02:46:31;;;;;;;3.33;2.20;;;;;;;;;;5036873;28;20017;-59
2021/06/02 02:49:03;;;;;;;3.78;2.28;;;;;;;;;;5036236;28;20017;-59
2021/06/02 02:51:45;;;;;;;7.20;2.75;;;;;;;;;;5054024;28;20029;-59
2021/06/02 02:54:16;;;;;;;3.95;2.53;;;;;;;;;;5054294;28;20436;-59
2021/06/02 02:56:42;;;;;;;;;;;;;;;;;;5054942;28;20374;-59
2021/06/02 02:59:18;;;;;;;3.17;2.33;;;;;;;;;;5032837;28;19917;-59
2021/06/02 03:01:51;;;;;;;5.50;1.60;;;;;;;;;;5033957;28;20068;-59
2021/06/02 03:04:24;;;;;;;3.05;2.40;;;;;;;;;;5033545;28;20037;-59
2021/06/02 03:06:55;;;;;;;3.88;2.42;;;;;;;;;;5033939;28;20026;-59
2021/06/02 03:09:31;;;;;;;3.83;3.10;;;;;;;;;;5033926;28;20071;-59
2021/06/02 03:12:10;;;;;;;4.93;2.30;;;;;;;;;;5034417;28;20124;-59
2021/06/02 03:14:54;;;;;;;4.93;2.72;;;;;;;;;;5032544;28;20371;-59
2021/06/02 03:17:34;;;;;;;2.95;2.53;;;;;;;;;;5033694;28;20105;-59
2021/06/02 03:20:03;;;;;;;3.72;2.65;;;;;;;;;;5033678;28;20026;-59
2021/06/02 03:22:48;;;;;;;4.28;2.97;;;;;;;;;;5034186;28;20090;-60
2021/06/02 03:25:25;;;;;;;3.63;2.35;;;;;;;;;;5034207;28;20022;-59
2021/06/02 03:28:03;;;;;;;3.47;2.20;;;;;;;;;;5034500;28;20122;-59
2021/06/02 03:30:34;;;;;;;5.38;3.40;;;;;;;;;;5034073;28;20021;-59
2021/06/02 03:33:03;;;;;;;5.90;2.55;;;;;;;;;;5032451;28;20045;-59
2021/06/02 03:35:41;;;;;;;4.35;2.40;;;;;;;;;;5032915;28;20025;-59
2021/06/02 03:38:26;;;;;;;3.05;2.40;;;;;;;;;;5034144;28;20029;-59
2021/06/02 03:41:01;;;;;;;3.70;2.72;;;;;;;;;;5033980;28;20048;-59
2021/06/02 03:43:39;;;;;;;3.47;2.65;;;;;;;;;;5033568;28;20037;-59
2021/06/02 03:46:05;;;;;;;5.13;2.22;;;;;;;;;;5034065;28;20032;-59
2021/06/02 03:48:35;;;;;;;7.00;3.05;;;;;;;;;;5033711;28;20029;-59
2021/06/02 03:51:25;;;;;;;4.78;2.78;;;;;;;;;;5032155;28;20030;-59
2021/06/02 03:54:13;;;;;;;8.02;2.72;;;;;;;;;;5037543;28;20087;-59
2021/06/02 03:56:39;;;;;;;4.30;2.58;;;;;;;;;;5035485;28;20037;-59
2021/06/02 03:59:23;;;;;;;3.30;2.47;;;;;;;;;;5035699;28;20067;-59
2021/06/02 04:01:53;;;;;;;4.85;3.03;;;;;;;;;;5037346;28;20083;-59
2021/06/02 04:04:25;;;;;;;3.53;2.45;;;;;;;;;;5036878;28;20022;-59
2021/06/02 04:06:57;;;;;;;9.85;3.10;;;;;;;;;;5037774;28;20032;-59
2021/06/02 04:09:25;;;;;;;6.80;3.10;;;;;;;;;;5036769;28;20063;-59
2021/06/02 04:12:11;;;;;;;3.05;2.28;;;;;;;;;;5037228;28;20030;-59
2021/06/02 04:14:38;;;;;;;3.88;3.35;;;;;;;;;;5036501;28;20026;-59
2021/06/02 04:17:10;;;;;;;3.50;2.45;;;;;;;;;;5037174;28;20022;-59
2021/06/02 04:19:36;;;;;;;5.47;2.53;;;;;;;;;;5036391;28;20029;-59
2021/06/02 04:22:06;;;;;;;5.38;3.00;;;;;;;;;;5036994;28;20076;-59
2021/06/02 04:24:33;;;;;;;7.78;2.92;;;;;;;;;;5037233;28;20101;-59
2021/06/02 04:27:00;;;;;;;4.32;2.45;;;;;;;;;;5035772;28;20478;-59
2021/06/02 04:29:27;;;;;;;6.03;3.55;;;;;;;;;;5036822;28;20057;-59
2021/06/02 04:31:59;;;;;;;3.78;2.78;;;;;;;;;;5036120;28;20489;-59
2021/06/02 04:34:26;;;;;;;3.85;2.53;;;;;;;;;;5036659;28;20032;-59
2021/06/02 04:36:53;;;;;;;3.38;2.30;;;;;;;;;;5036985;28;20029;-60
2021/06/02 04:39:20;;;;;;;4.20;3.30;;;;;;;;;;5036469;28;20025;-59
2021/06/02 04:41:47;;;;;;;3.88;3.10;;;;;;;;;;5036499;28;20033;-59
2021/06/02 04:44:14;;;;;;;4.35;3.20;;;;;;;;;;5036585;28;20056;-59
2021/06/02 04:46:40;;;;;;;6.93;2.95;;;;;;;;;;5035283;28;20113;-59
2021/06/02 04:49:06;;;;;;;2.97;2.55;;;;;;;;;;5035200;28;20021;-60
2021/06/02 04:51:38;;;;;;;4.03;2.40;;;;;;;;;;5036440;28;20040;-59
2021/06/02 04:54:23;;;;;;;3.53;2.97;;;;;;;;;;5036412;28;20036;-59
2021/06/02 04:56:49;;;;;;;5.65;2.88;;;;;;;;;;5036733;28;20021;-60
2021/06/02 04:59:27;;;;;;;5.95;2.63;;;;;;;;;;5040970;28;20106;-60
2021/06/02 05:02:05;;;;;;;3.30;2.58;;;;;;;;;;5038453;28;20443;-60
2021/06/02 05:04:40;;;;;;;3.67;2.45;;;;;;;;;;5055260;28;20029;-60
2021/06/02 05:07:12;;;;;;;4.65;2.63;;;;;;;;;;5056020;28;20021;-60
2021/06/02 05:09:57;;;;;;;5.25;2.88;;;;;;;;;;5037871;28;20029;-60
2021/06/02 05:12:26;;;;;;;4.13;3.00;;;;;;;;;;5038664;28;20366;-60
2021/06/02 05:15:11;;;;;;;3.63;2.50;;;;;;;;;;5056480;28;20354;-60
2021/06/02 05:17:43;;;;;;;3.35;2.38;;;;;;;;;;5055529;28;20497;-60
2021/06/02 05:20:18;;;;;;;5.32;2.85;;;;;;;;;;5055655;28;20040;-60
2021/06/02 05:22:59;;;;;;;3.42;2.47;;;;;;;;;;5055758;28;20065;-59
2021/06/02 05:25:44;;;;;;;3.40;2.50;;;;;;;;;;5055685;28;20028;-60
2021/06/02 05:28:28;;;;;;;5.95;2.80;;;;;;;;;;5056108;28;20021;-59
2021/06/02 05:31:06;;;;;;;5.75;2.20;;;;;;;;;;5055958;28;20025;-59
2021/06/02 05:33:48;;;;;;;6.68;2.97;;;;;;;;;;5055801;28;20078;-60
2021/06/02 05:36:23;;;;;;;3.95;2.67;;;;;;;;;;5056100;28;20032;-58
2021/06/02 05:38:49;;;;;;;3.70;2.40;;;;;;;;;;5055978;28;20082;-58
2021/06/02 05:41:15;;;;;;;3.03;2.22;;;;;;;;;;5038125;28;20078;-59
2021/06/02 05:43:44;;;;;;;3.72;2.78;;;;;;;;;;5055796;28;20103;-58
2021/06/02 05:46:10;;;;;;;2.70;2.25;;;;;;;;;;5055273;28;20028;-58
2021/06/02 05:48:55;;;;;;;3.00;2.28;;;;;;;;;;5055315;28;20166;-59
2021/06/02 05:51:21;;;;;;;3.47;2.25;;;;;;;;;;5055278;28;20033;-58
2021/06/02 05:53:50;;;;;;;3.08;2.30;;;;;;;;;;5055086;28;20179;-58
2021/06/02 05:56:40;;;;;;;4.78;2.92;;;;;;;;;;5055649;28;20067;-58
2021/06/02 05:59:09;;;;;;;4.43;2.70;;;;;;;;;;5037066;28;20049;-58
2021/06/02 06:01:54;;;;;;;4.97;3.30;;;;;;;;;;5037362;28;20102;-58
2021/06/02 06:04:38;;;;;;;3.55;2.40;;;;;;;;;;5037615;28;20052;-58
2021/06/02 06:07:32;;;;;;;5.80;2.30;;;;;;;;;;5054854;28;20021;-58
2021/06/02 06:09:58;;;;;;;4.60;2.75;;;;;;;;;;5055512;28;20028;-58
2021/06/02 06:12:46;;;;;;;4.70;3.20;;;;;;;;;;5055088;28;20090;-59
2021/06/02 06:15:30;;;;;;;2.90;1.90;;;;;;;;;;5036863;28;20021;-58
2021/06/02 06:17:56;;;;;;;2.83;2.05;;;;;;;;;;5054415;28;20032;-59
2021/06/02 06:20:23;;;;;;;3.28;2.42;;;;;;;;;;5054436;28;20029;-59
2021/06/02 06:23:06;;;;;;;3.40;2.03;;;;;;;;;;5054570;28;20060;-59
2021/06/02 06:25:32;;;;;;;7.65;2.28;;;;;;;;;;5037190;28;20352;-58
2021/06/02 06:28:17;;;;;;;3.30;2.38;;;;;;;;;;5054501;28;20029;-59
2021/06/02 06:30:47;;;;;;;4.53;2.70;;;;;;;;;;5036369;28;20025;-59
2021/06/02 06:33:15;;;;;;;3.70;2.72;;;;;;;;;;5036695;28;20413;-59
2021/06/02 06:35:42;;;;;;;3.35;2.10;;;;;;;;;;5036204;28;20033;-59
2021/06/02 06:38:11;;;;;;;5.07;2.83;;;;;;;;;;5054191;28;20108;-59
2021/06/02 06:40:38;;;;;;;6.27;3.13;;;;;;;;;;5054225;28;20017;-59
2021/06/02 06:43:10;;;;;;;4.05;3.40;;;;;;;;;;5053906;28;20286;-59
2021/06/02 06:45:38;;;;;;;5.70;3.33;;;;;;;;;;5036038;28;20021;-59
2021/06/02 06:48:20;;;;;;;5.38;3.45;;;;;;;;;;5054597;28;20017;-59
2021/06/02 06:50:47;;;;;;;6.25;2.47;;;;;;;;;;5054067;28;20024;-59
2021/06/02 06:53:14;;;;;;;4.78;3.35;;;;;;;;;;5053974;28;20033;-59
2021/06/02 06:55:41;;;;;;;6.07;3.10;;;;;;;;;;5053956;28;20031;-59
2021/06/02 06:58:07;;;;;;;3.88;2.63;;;;;;;;;;5036918;28;20021;-59
2021/06/02 07:00:34;;;;;;;4.40;2.85;;;;;;;;;;5035713;28;20364;-59
2021/06/02 07:03:00;;;;;;;2.85;2.22;;;;;;;;;;5054370;28;20459;-59
2021/06/02 07:05:28;;;;;;;9.05;2.97;;;;;;;;;;5053782;28;20102;-59
2021/06/02 07:07:55;;;;;;;3.35;2.47;;;;;;;;;;5053886;28;20033;-59
2021/06/02 07:10:22;;;;;;;6.22;2.75;;;;;;;;;;5053741;28;20022;-59
2021/06/02 07:12:49;;;;;;;11.07;3.05;;;;;;;;;;5054369;28;20035;-59
2021/06/02 07:15:15;;;;;;;3.88;2.92;;;;;;;;;;5053769;28;20115;-59
2021/06/02 07:17:46;;;;;;;7.68;3.45;;;;;;;;;;5053734;28;20074;-59
2021/06/02 07:20:12;;;;;;;;;;;;;;;;;;5053988;28;20112;-59
2021/06/02 07:22:42;;;;;;;5.13;2.72;;;;;;;;;;5053946;28;20019;-59
2021/06/02 07:25:09;;;;;;;5.22;2.55;;;;;;;;;;5054120;28;20032;-59
2021/06/02 07:27:38;;;;;;;3.10;2.58;;;;;;;;;;5053387;28;20063;-59
2021/06/02 07:30:07;;;;;;;3.42;2.40;;;;;;;;;;5035996;28;20029;-59
2021/06/02 07:32:33;;;;;;;3.55;2.42;;;;;;;;;;5054099;28;20493;-59
2021/06/02 07:34:59;;;;;;;5.32;2.22;;;;;;;;;;5053490;28;20029;-59
2021/06/02 07:37:25;;;;;;;3.00;2.15;;;;;;;;;;5035636;28;20024;-59
2021/06/02 07:39:52;;;;;;;6.20;3.33;;;;;;;;;;5018883;28;20029;-59
2021/06/02 07:42:18;;;;;;;3.03;2.10;;;;;;;;;;5053497;28;20112;-59
2021/06/02 07:44:45;;;;;;;3.25;2.17;;;;;;;;;;5053788;28;20049;-59
2021/06/02 07:47:10;;;;;;;3.22;2.25;;;;;;;;;;5036169;28;20029;-59
2021/06/02 07:49:36;;;;;;;3.33;2.53;;;;;;;;;;5053224;28;20025;-59
2021/06/02 07:52:03;;;;;;;2.63;1.92;;;;;;;;;;5036499;28;20443;-59
2021/06/02 07:54:29;;;;;;;7.55;3.13;;;;;;;;;;5035260;28;20048;-59
2021/06/02 07:56:55;;;;;;;2.92;1.95;;;;;;;;;;5053269;28;20033;-59
2021/06/02 07:59:21;;;;;;;5.20;2.28;;;;;;;;;;5052933;28;20128;-60
2021/06/02 08:01:48;;;;;;;3.03;1.85;;;;;;;;;;5052876;28;20033;-59
2021/06/02 08:04:14;;;;;;;3.25;1.85;;;;;;;;;;5053614;28;20032;-60
2021/06/02 08:06:40;;;;;;;2.05;1.55;;;;;;;;;;5035093;28;20048;-59
2021/06/02 08:09:07;;;;;;;3.58;2.08;;;;;;;;;;5053242;28;20032;-60
2021/06/02 08:11:33;;;;;;;6.75;2.22;;;;;;;;;;5035666;28;20024;-59
2021/06/02 08:13:59;;;;;;;2.65;1.65;;;;;;;;;;5052848;28;20556;-59
2021/06/02 08:16:25;;;;;;;5.78;2.05;;;;;;;;;;5052953;28;20482;-59
2021/06/02 08:18:52;;;;;;;3.20;1.80;;;;;;;;;;5053718;28;20039;-59
2021/06/02 08:21:18;;;;;;;3.22;2.00;;;;;;;;;;5053648;28;20100;-59
2021/06/02 08:23:44;;;;;;;3.00;1.83;;;;;;;;;;5053172;28;20035;-59
2021/06/02 08:26:10;;;;;;;2.17;1.63;;;;;;;;;;5036045;28;20017;-59
2021/06/02 08:28:37;;;;;;;4.07;2.22;;;;;;;;;;5052990;28;20021;-60
2021/06/02 08:31:03;;;;;;;2.25;1.48;;;;;;;;;;5053358;28;20420;-60
2021/06/02 08:33:29;;;;;;;3.92;1.95;;;;;;;;;;5035989;28;20037;-60
2021/06/02 08:35:55;;;;;;;3.38;1.92;;;;;;;;;;5053060;28;20032;-59
2021/06/02 08:38:21;;;;;;;3.05;2.05;;;;;;;;;;5036662;28;20029;-60
2021/06/02 08:40:47;;;;;;;3.30;1.80;;;;;;;;;;5056531;28;20108;-60
2021/06/02 08:43:13;;;;;;;3.97;1.85;;;;;;;;;;5038588;28;20124;-60
2021/06/02 08:45:39;;;;;;;2.60;2.00;;;;;;;;;;5056954;28;20044;-59
2021/06/02 08:48:06;;;;;;;5.20;2.10;;;;;;;;;;5056958;28;20024;-60
2021/06/02 08:50:32;;;;;;;1.98;1.33;;;;;;;;;;5056202;28;20025;-60
2021/06/02 08:53:01;;;;;;;2.10;1.13;;;;;;;;;;5056405;28;20037;-60
2021/06/02 08:55:28;;;;;;;2.53;1.60;;;;;;;;;;5038415;28;20348;-60
2021/06/02 08:57:55;;;;;;;2.60;1.63;;;;;;;;;;5056289;28;20021;-60
2021/06/02 09:00:22;;;;;;;2.50;1.60;;;;;;;;;;5056148;28;20076;-60
2021/06/02 09:02:53;;;;;;;2.92;1.50;;;;;;;;;;5056131;28;20111;-60
2021/06/02 09:05:19;;;;;;;3.38;1.65;;;;;;;;;;5056967;28;20032;-60
2021/06/02 09:07:48;;;;;;;4.78;1.90;;;;;;;;;;5056644;28;20067;-60
2021/06/02 09:10:14;;;;;;;2.60;1.30;;;;;;;;;;5056050;28;20079;-60
2021/06/02 09:12:41;;;;;;;5.72;2.10;;;;;;;;;;5038636;28;20036;-60
2021/06/02 09:15:08;;;;;;;2.13;1.33;;;;;;;;;;5055890;28;20021;-60
2021/06/02 09:17:46;;;;;;;2.40;1.45;;;;;;;;;;5055866;28;20079;-60
2021/06/02 09:20:12;;;;;;;2.00;1.00;;;;;;;;;;5056371;28;20332;-60
2021/06/02 09:22:38;;;;;;;2.33;1.63;;;;;;;;;;5037947;28;20029;-60
2021/06/02 09:25:05;;;;;;;1.95;1.38;;;;;;;;;;5055753;28;20054;-60
2021/06/02 09:27:48;;;;;;;3.35;2.10;;;;;;;;;;5055672;28;20029;-60
2021/06/02 09:30:15;;;;;;;9.27;1.92;;;;;;;;;;5055559;28;20344;-60
2021/06/02 09:32:45;;;;;;;6.25;1.33;;;;;;;;;;5055538;28;20025;-60
2021/06/02 09:35:12;;;;;;;2.92;1.60;;;;;;;;;;5055885;28;20416;-60
2021/06/02 09:37:51;;;;;;;1.98;1.38;;;;;;;;;;5055526;28;20021;-60
2021/06/02 09:40:21;;;;;;;5.53;1.47;;;;;;;;;;5055392;28;20462;-60
2021/06/02 09:42:47;;;;;;;5.55;1.77;;;;;;;;;;5037665;28;20027;-60
2021/06/02 09:45:14;;;;;;;4.53;1.83;;;;;;;;;;5055305;28;20036;-60
2021/06/02 09:47:42;;;;;;;3.42;1.88;;;;;;;;;;5055203;28;20077;-60
2021/06/02 09:50:08;;;;;;;2.47;1.38;;;;;;;;;;5054793;28;20111;-60
2021/06/02 09:52:39;;;;;;;5.47;1.80;;;;;;;;;;5054907;28;20423;-60
2021/06/02 09:55:11;;;;;;;3.88;1.50;;;;;;;;;;5037364;28;20021;-60
2021/06/02 09:57:37;;;;;;;2.90;1.40;;;;;;;;;;5055401;28;20017;-60
2021/06/02 10:00:04;;;;;;;3.58;1.67;;;;;;;;;;5036712;28;20055;-60
2021/06/02 10:02:30;;;;;;;2.13;1.25;;;;;;;;;;5054934;28;20017;-60
2021/06/02 10:04:59;;;;;;;3.45;1.77;;;;;;;;;;5055415;28;20105;-59
2021/06/02 10:07:25;;;;;;;2.10;1.40;;;;;;;;;;5054791;28;20021;-60
2021/06/02 10:09:52;;;;;;;2.10;1.50;;;;;;;;;;5054767;28;20021;-60
2021/06/02 10:12:18;;;;;;;2.92;1.27;;;;;;;;;;5055345;28;20029;-60
2021/06/02 10:15:04;;;;;;;2.38;1.58;;;;;;;;;;5054718;28;20344;-60
2021/06/02 10:17:38;;;;;;;4.75;1.60;;;;;;;;;;5055184;28;20075;-60
2021/06/02 10:20:08;;;;;;;2.30;1.65;;;;;;;;;;5054536;28;20028;-61
2021/06/02 10:22:34;;;;;;;2.13;1.35;;;;;;;;;;5055104;28;20033;-60
2021/06/02 10:25:01;;;;;;;3.25;1.40;;;;;;;;;;5054893;28;20033;-60
2021/06/02 10:27:28;;;;;;;4.47;1.45;;;;;;;;;;5055139;28;20017;-63
2021/06/02 10:29:54;;;;;;;2.63;1.67;;;;;;;;;;5054741;28;20021;-59
2021/06/02 10:32:20;;;;;;;2.30;1.55;;;;;;;;;;5054445;28;20036;-59
2021/06/02 10:34:47;;;;;;;2.50;1.52;;;;;;;;;;5054401;28;20071;-59
2021/06/02 10:37:15;;;;;;;3.45;1.75;;;;;;;;;;5054280;28;20104;-59
2021/06/02 10:39:42;;;;;;;3.55;1.70;;;;;;;;;;5054616;28;20013;-59
2021/06/02 10:42:22;;;;;;;2.80;1.88;;;;;;;;;;5036651;28;20025;-59
2021/06/02 10:44:51;;;;;;;2.53;1.98;;;;;;;;;;5054178;28;20037;-59
2021/06/02 10:47:21;;;;;;;2.50;1.60;;;;;;;;;;5054104;28;20021;-59
2021/06/02 10:49:48;;;;;;;;;;;;;;;;;;5054695;28;20479;-59
2021/06/02 10:52:34;;;;;;;3.00;1.75;;;;;;;;;;5054889;28;19904;-59
2021/06/02 10:54:59;;;;;;;3.80;1.30;;;;;;;;;;5054627;28;20025;-60
2021/06/02 10:57:26;;;;;;;2.58;1.60;;;;;;;;;;5053984;28;20536;-59
2021/06/02 11:00:09;;;;;;;2.55;1.33;;;;;;;;;;5036527;28;20360;-59
2021/06/02 11:02:36;;;;;;;6.50;2.05;;;;;;;;;;5054277;28;20025;-59
2021/06/02 11:05:06;;;;;;;5.65;2.20;;;;;;;;;;5053923;28;20029;-59
2021/06/02 11:07:33;;;;;;;8.60;2.30;;;;;;;;;;5053389;28;20024;-59
2021/06/02 11:10:02;;;;;;;2.42;1.77;;;;;;;;;;5053755;28;20021;-60
2021/06/02 11:12:50;;;;;;;3.30;1.83;;;;;;;;;;5054026;28;20044;-59
2021/06/02 11:15:31;;;;;;;3.30;1.50;;;;;;;;;;5053612;28;20020;-60
2021/06/02 11:18:18;;;;;;;3.22;1.48;;;;;;;;;;5053807;28;20019;-60
2021/06/02 11:20:44;;;;;;;4.57;1.55;;;;;;;;;;5053777;28;20420;-59
2021/06/02 11:23:11;;;;;;;3.53;1.75;;;;;;;;;;5053311;28;20065;-59
2021/06/02 11:25:38;;;;;;;3.40;2.10;;;;;;;;;;5054109;28;20113;-60
2021/06/02 11:28:05;;;;;;;2.95;2.03;;;;;;;;;;5053561;28;20050;-59
2021/06/02 11:30:31;;;;;;;1.60;1.02;;;;;;;;;;5053643;28;20032;-59
2021/06/02 11:32:58;;;;;;;5.10;2.17;;;;;;;;;;5054080;28;20029;-60
2021/06/02 11:35:43;;;;;;;4.38;1.75;;;;;;;;;;5053556;28;20401;-60
2021/06/02 11:38:09;;;;;;;2.58;1.83;;;;;;;;;;5053477;28;20206;-60
2021/06/02 11:40:35;;;;;;;4.32;1.60;;;;;;;;;;5053416;28;20049;-59
2021/06/02 11:43:01;;;;;;;2.55;1.60;;;;;;;;;;5053330;28;20503;-60
2021/06/02 11:45:28;;;;;;;4.35;2.05;;;;;;;;;;5053432;28;20348;-60
2021/06/02 11:48:01;;;;;;;2.63;1.85;;;;;;;;;;5052978;28;20528;-60
2021/06/02 11:50:27;;;;;;;2.22;1.27;;;;;;;;;;5053205;28;20025;-60
2021/06/02 11:53:00;;;;;;;2.70;1.83;;;;;;;;;;5053497;28;20036;-60
2021/06/02 11:55:27;;;;;;;2.35;1.65;;;;;;;;;;5053786;28;20096;-59
2021/06/02 11:57:54;;;;;;;2.10;1.40;;;;;;;;;;5053679;28;20033;-60
2021/06/02 12:00:21;;;;;;;4.00;2.25;;;;;;;;;;5052786;28;20048;-60
2021/06/02 12:02:54;;;;;;;3.35;1.83;;;;;;;;;;5053209;28;20100;-59
2021/06/02 12:05:20;;;;;;;3.85;1.58;;;;;;;;;;5052952;28;20471;-60
2021/06/02 12:07:47;;;;;;;2.95;1.50;;;;;;;;;;5053549;28;20033;-60
2021/06/02 12:10:13;;;;;;;2.33;1.52;;;;;;;;;;5053255;28;20028;-60
2021/06/02 12:12:40;;;;;;;2.53;1.67;;;;;;;;;;5054027;28;20029;-59
2021/06/02 12:15:06;;;;;;;2.83;1.60;;;;;;;;;;5056755;28;20478;-60
2021/06/02 12:17:33;;;;;;;3.30;1.90;;;;;;;;;;5056894;28;20028;-59
2021/06/02 12:20:00;;;;;;;3.78;1.58;;;;;;;;;;5056533;28;20021;-60
2021/06/02 12:22:27;;;;;;;2.45;1.33;;;;;;;;;;5057083;28;20028;-60
2021/06/02 12:25:16;;;;;;;3.95;2.20;;;;;;;;;;5056957;28;20032;-59
2021/06/02 12:28:00;;;;;;;3.35;1.77;;;;;;;;;;5057252;28;20021;-60
2021/06/02 12:30:28;;;;;;;3.42;1.90;;;;;;;;;;5057163;28;20025;-60
2021/06/02 12:32:55;;;;;;;2.38;1.70;;;;;;;;;;5056966;28;20025;-59
2021/06/02 12:35:27;;;;;;;2.08;1.42;;;;;;;;;;5056511;28;20536;-59
2021/06/02 12:38:12;;;;;;;3.20;1.85;;;;;;;;;;5056812;28;20028;-60
2021/06/02 12:40:40;;;;;;;4.85;2.15;;;;;;;;;;5056696;28;20104;-59
2021/06/02 12:43:10;;;;;;;2.20;1.48;;;;;;;;;;5038405;28;20453;-59
2021/06/02 12:45:36;;;;;;;2.80;1.92;;;;;;;;;;5038410;28;20375;-60
2021/06/02 12:48:02;;;;;;;2.83;1.52;;;;;;;;;;5056386;28;20025;-59
2021/06/02 12:50:42;;;;;;;3.38;2.00;;;;;;;;;;5055907;28;20029;-60
2021/06/02 12:53:09;;;;;;;2.63;1.63;;;;;;;;;;5056331;28;20029;-61
2021/06/02 12:55:42;;;;;;;1.98;1.40;;;;;;;;;;5055882;28;20080;-61
2021/06/02 12:58:30;;;;;;;2.05;1.38;;;;;;;;;;5038126;28;20025;-58
2021/06/02 13:01:00;;;;;;;2.45;1.30;;;;;;;;;;5056124;28;20045;-59
2021/06/02 13:03:26;;;;;;;4.25;1.70;;;;;;;;;;5056346;28;20481;-59
2021/06/02 13:05:52;;;;;;;2.83;1.73;;;;;;;;;;5055948;28;20417;-59
2021/06/02 13:08:18;;;;;;;2.58;1.60;;;;;;;;;;5055645;28;20523;-59
2021/06/02 13:10:46;;;;;;;2.20;1.50;;;;;;;;;;5056536;28;20022;-59
2021/06/02 13:13:12;;;;;;;2.17;1.42;;;;;;;;;;5056160;28;20028;-59
2021/06/02 13:15:43;;;;;;;2.45;1.70;;;;;;;;;;5055808;28;20025;-60
2021/06/02 13:18:09;;;;;;;;;;;;;;;;;;5056792;28;20036;-59
2021/06/02 13:20:36;;;;;;;5.78;1.48;;;;;;;;;;5055731;28;19904;-59
2021/06/02 13:23:16;;;;;;;2.95;1.50;;;;;;;;;;5055575;28;20025;-59
2021/06/02 13:25:57;;;;;;;2.45;1.40;;;;;;;;;;5054487;28;20389;-59
2021/06/02 13:28:24;;;;;;;2.42;1.42;;;;;;;;;;5056160;28;20048;-59
2021/06/02 13:30:50;;;;;;;2.40;1.92;;;;;;;;;;5055555;28;20481;-59
2021/06/02 13:33:16;;;;;;;2.22;1.60;;;;;;;;;;5055223;28;20056;-59
2021/06/02 13:35:43;;;;;;;2.05;1.35;;;;;;;;;;5055601;28;20029;-59
2021/06/02 13:38:09;;;;;;;2.97;2.03;;;;;;;;;;5055839;28;20049;-59
2021/06/02 13:40:40;;;;;;;3.70;2.30;;;;;;;;;;5055690;28;20025;-59
2021/06/02 13:43:13;;;;;;;1.95;1.00;;;;;;;;;;5054919;28;20455;-59
2021/06/02 13:45:47;;;;;;;2.35;1.38;;;;;;;;;;5055614;28;20113;-59
2021/06/02 13:48:20;;;;;;;2.85;2.00;;;;;;;;;;5055489;28;20017;-59
2021/06/02 13:50:46;;;;;;;4.97;1.42;;;;;;;;;;5054877;28;20024;-59
2021/06/02 13:53:12;;;;;;;2.95;1.58;;;;;;;;;;5055377;28;20028;-60
2021/06/02 13:55:38;;;;;;;2.80;1.25;;;;;;;;;;5055286;28;20036;-59
2021/06/02 13:58:17;;;;;;;1.80;1.25;;;;;;;;;;5054633;28;20029;-59
2021/06/02 14:00:43;;;;;;;2.72;1.60;;;;;;;;;;5054663;28;20102;-60
2021/06/02 14:03:09;;;;;;;2.65;1.70;;;;;;;;;;5054771;28;20045;-60
2021/06/02 14:05:35;;;;;;;2.00;1.30;;;;;;;;;;5055393;28;20021;-60
2021/06/02 14:08:01;;;;;;;2.10;1.20;;;;;;;;;;5054774;28;20021;-59
2021/06/02 14:10:27;;;;;;;2.15;1.55;;;;;;;;;;5055063;28;20028;-60
2021/06/02 14:12:57;;;;;;;2.67;1.50;;;;;;;;;;5054597;28;20424;-60
2021/06/02 14:15:23;;;;;;;1.90;1.23;;;;;;;;;;5054797;28;20025;-60
2021/06/02 14:17:49;;;;;;;2.15;1.40;;;;;;;;;;5055344;28;20036;-60
2021/06/02 14:20:15;;;;;;;2.33;1.33;;;;;;;;;;5054204;28;20032;-60
2021/06/02 14:22:41;;;;;;;3.28;1.40;;;;;;;;;;5054129;28;20017;-59
2021/06/02 14:25:09;;;;;;;3.10;1.52;;;;;;;;;;5054704;28;20348;-59
2021/06/02 14:27:35;;;;;;;2.88;1.65;;;;;;;;;;5054363;28;20083;-60
2021/06/02 14:30:01;;;;;;;4.53;1.55;;;;;;;;;;5054617;28;20087;-60
2021/06/02 14:32:27;;;;;;;2.45;1.38;;;;;;;;;;5054602;28;20466;-60
2021/06/02 14:34:53;;;;;;;1.95;1.00;;;;;;;;;;5053984;28;20497;-60
2021/06/02 14:37:19;;;;;;;2.53;1.35;;;;;;;;;;5053892;28;20029;-60
2021/06/02 14:39:45;;;;;;;2.92;1.25;;;;;;;;;;5054091;28;20021;-60
2021/06/02 14:42:12;;;;;;;2.78;1.17;;;;;;;;;;5054104;28;20074;-59
2021/06/02 14:44:38;;;;;;;2.00;1.15;;;;;;;;;;5054096;28;20072;-60
2021/06/02 14:47:06;;;;;;;2.20;1.10;;;;;;;;;;5053769;28;20051;-60
2021/06/02 14:49:35;;;;;;;3.50;1.90;;;;;;;;;;5053854;28;20025;-60
2021/06/02 14:52:01;;;;;;;3.33;1.57;;;;;;;;;;5054406;28;20034;-60
2021/06/02 14:54:27;;;;;;;2.53;1.27;;;;;;;;;;5053919;28;20025;-60
2021/06/02 14:56:54;;;;;;;1.42;1.00;;;;;;;;;;5054108;28;20451;-60
2021/06/02 14:59:20;;;;;;;6.90;1.55;;;;;;;;;;5054077;28;20045;-60
2021/06/02 15:01:46;;;;;;;2.60;1.80;;;;;;;;;;5053732;28;20036;-60
2021/06/02 15:04:12;;;;;;;2.05;1.10;;;;;;;;;;5053698;28;20446;-60
2021/06/02 15:06:38;;;;;;;2.45;1.20;;;;;;;;;;5053786;28;20053;-60
2021/06/02 15:09:04;;;;;;;4.25;1.38;;;;;;;;;;5053706;28;20418;-60
2021/06/02 15:11:30;;;;;;;2.10;1.27;;;;;;;;;;5053652;28;20031;-60
2021/06/02 15:13:56;;;;;;;4.50;1.55;;;;;;;;;;5053670;28;20103;-60
2021/06/02 15:16:22;;;;;;;1.55;0.88;;;;;;;;;;5053648;28;20021;-60
2021/06/02 15:18:48;;;;;;;3.67;1.73;;;;;;;;;;5053644;28;20461;-60
2021/06/02 15:21:14;;;;;;;3.22;1.33;;;;;;;;;;5053894;28;20431;-60